.
WxDataArchive / Data Records for 2013-10-15
2013-10-14 October 2013 2013-10-16

Data Records for Tuesday, 15 October 2013

Time	Temp	Chill	HIndex	Humid	Dewpt	 Wind 	HiWind	WindDir	Rain 	Barom 
-----	----	-----	------	-----	-----	------	------	-------	-----	----- 
00:00	49.8	49.8	49.8	82	44.5	0	1	90	0.00	30.222 
00:05	49.6	49.6	49.6	82	44.3	0	2	90	0.00	30.222 
00:10	49.5	49.5	49.5	83	44.6	0	1	90	0.00	30.222 
00:15	49.4	49.4	49.4	83	44.5	0	1	90	0.00	30.214 
00:20	49.2	49.2	49.2	84	44.6	0	1	90	0.00	30.214 
00:25	49.2	49.2	49.2	84	44.6	0	3	90	0.00	30.214 
00:30	49.1	49.1	49.1	84	44.5	0	1	90	0.00	30.215 
00:35	48.9	48.9	48.9	84	44.3	0	1	90	0.00	30.215 
00:40	48.8	48.8	48.8	84	44.2	0	1	90	0.00	30.215 
00:45	48.6	48.6	48.6	84	44.0	0	1	90	0.00	30.210 
00:50	48.5	48.5	48.5	85	44.2	0	0	---	0.00	30.210 
00:55	48.3	48.3	48.3	85	44.0	0	0	---	0.00	30.210 
01:00	48.2	48.2	48.2	85	43.9	0	0	---	0.00	30.205 
01:05	48.0	48.0	48.0	85	43.7	0	1	90	0.00	30.205 
01:10	47.9	47.9	47.9	86	43.9	0	0	---	0.00	30.205 
01:15	47.6	47.6	47.6	86	43.6	0	0	---	0.00	30.200 
01:20	47.4	47.4	47.4	87	43.7	0	1	90	0.00	30.200 
01:25	47.4	47.4	47.4	87	43.7	0	1	90	0.00	30.200 
01:30	47.3	47.3	47.3	87	43.6	0	1	90	0.00	30.190 
01:35	47.3	47.3	47.3	88	43.9	0	0	---	0.00	30.190 
01:40	47.1	47.1	47.1	88	43.7	0	1	90	0.00	30.190 
01:45	47.1	47.1	47.1	88	43.7	0	2	90	0.00	30.183 
01:50	47.1	47.1	47.1	88	43.7	0	1	90	0.00	30.183 
01:55	47.1	47.1	47.1	88	43.7	0	1	90	0.00	30.183 
02:00	47.0	47.0	47.0	88	43.6	0	1	90	0.00	30.170 
02:05	46.8	46.8	46.8	88	43.4	0	1	90	0.00	30.170 
02:10	46.8	46.8	46.8	88	43.4	0	1	90	0.00	30.170 
02:15	46.8	46.8	46.8	88	43.4	0	1	90	0.00	30.169 
02:20	46.7	46.7	46.7	89	43.6	0	1	90	0.00	30.169 
02:25	46.7	46.7	46.7	89	43.6	0	1	90	0.00	30.169 
02:30	46.5	46.5	46.5	89	43.4	0	1	90	0.00	30.164 
02:35	46.7	46.7	46.7	89	43.6	0	1	90	0.00	30.164 
02:40	46.5	46.5	46.5	89	43.4	0	1	90	0.00	30.164 
02:45	46.5	46.5	46.5	89	43.4	0	1	90	0.00	30.161 
02:50	46.7	46.7	46.7	89	43.6	0	1	90	0.00	30.161 
02:55	46.5	46.5	46.5	89	43.4	0	1	90	0.00	30.161 
03:00	46.5	46.5	46.5	89	43.4	0	1	90	0.00	30.156 
03:05	46.5	46.5	46.5	89	43.4	0	1	90	0.00	30.156 
03:10	46.5	46.5	46.5	89	43.4	0	1	90	0.00	30.156 
03:15	46.5	46.5	46.5	89	43.4	0	2	90	0.00	30.155 
03:20	46.5	46.5	46.5	89	43.4	0	0	---	0.00	30.155 
03:25	46.5	46.5	46.5	89	43.4	0	1	90	0.00	30.155 
03:30	46.4	46.4	46.4	89	43.3	0	1	90	0.00	30.143 
03:35	46.4	46.4	46.4	89	43.3	0	1	90	0.00	30.143 
03:40	46.4	46.4	46.4	89	43.3	0	2	90	0.00	30.143 
03:45	46.4	46.4	46.4	89	43.3	0	1	90	0.00	30.143 
03:50	46.4	46.4	46.4	89	43.3	0	1	90	0.00	30.143 
03:55	46.4	46.4	46.4	89	43.3	0	1	90	0.00	30.143 
04:00	46.4	46.4	46.4	89	43.3	0	1	90	0.00	30.138 
04:05	46.4	46.4	46.4	89	43.3	0	2	90	0.00	30.138 
04:10	46.2	46.2	46.2	89	43.1	0	3	90	0.00	30.138 
04:15	46.2	46.2	46.2	89	43.1	0	2	90	0.00	30.133 
04:20	46.2	46.2	46.2	89	43.1	0	2	90	0.00	30.133 
04:25	46.2	46.2	46.2	89	43.1	0	1	90	0.00	30.133 
04:30	46.1	46.1	46.1	89	43.0	0	2	90	0.00	30.126 
04:35	46.0	46.0	46.0	89	42.9	0	1	90	0.00	30.126 
04:40	46.0	46.0	46.0	89	42.9	0	1	90	0.00	30.126 
04:45	45.8	45.8	45.8	89	42.7	0	1	90	0.00	30.123 
04:50	45.8	45.8	45.8	89	42.7	0	1	90	0.00	30.123 
04:55	45.7	45.7	45.7	89	42.6	0	1	90	0.00	30.123 
05:00	45.5	45.5	45.5	89	42.4	0	1	90	0.00	30.122 
05:05	45.4	45.4	45.4	89	42.3	0	1	90	0.00	30.122 
05:10	45.2	45.2	45.2	89	42.2	0	1	90	0.00	30.122 
05:15	45.1	45.1	45.1	89	42.1	0	1	90	0.00	30.121 
05:20	45.1	45.1	45.1	89	42.1	0	1	90	0.00	30.121 
05:25	44.9	44.9	44.9	89	41.9	0	0	---	0.00	30.121 
05:30	44.8	44.8	44.8	89	41.8	0	0	---	0.00	30.122 
05:35	44.6	44.6	44.6	89	41.6	0	1	90	0.00	30.122 
05:40	44.5	44.5	44.5	90	41.8	0	0	---	0.00	30.122 
05:45	44.5	44.5	44.5	90	41.8	0	0	---	0.00	30.118 
05:50	44.5	44.5	44.5	90	41.8	0	1	90	0.00	30.118 
05:55	44.5	44.5	44.5	90	41.8	0	1	90	0.00	30.118 
06:00	44.6	44.6	44.6	91	42.1	0	2	90	0.00	30.110 
06:05	44.6	44.6	44.6	91	42.1	0	1	90	0.00	30.110 
06:10	44.6	44.6	44.6	90	41.9	0	1	90	0.00	30.110 
06:15	44.6	44.6	44.6	90	41.9	0	0	---	0.00	30.112 
06:20	44.6	44.6	44.6	91	42.1	0	1	90	0.00	30.112 
06:25	44.6	44.6	44.6	91	42.1	0	1	90	0.00	30.112 
06:30	44.8	44.8	44.8	91	42.3	0	2	90	0.00	30.104 
06:35	44.8	44.8	44.8	91	42.3	0	2	90	0.00	30.104 
06:40	44.8	44.8	44.8	91	42.3	0	1	90	0.00	30.104 
06:45	44.8	44.8	44.8	91	42.3	0	1	90	0.00	30.104 
06:50	44.8	44.8	44.8	91	42.3	0	1	90	0.00	30.104 
06:55	44.9	44.9	44.9	91	42.4	0	1	90	0.00	30.104 
07:00	44.9	44.9	44.9	91	42.4	0	1	90	0.00	30.099 
07:05	44.8	44.8	44.8	91	42.3	0	1	90	0.00	30.099 
07:10	44.8	44.8	44.8	91	42.3	0	1	90	0.00	30.099 
07:15	44.8	44.8	44.8	91	42.3	0	2	90	0.00	30.100 
07:20	44.8	44.8	44.8	91	42.3	0	1	90	0.00	30.100 
07:25	44.8	44.8	44.8	91	42.3	0	2	90	0.00	30.100 
07:30	44.6	44.6	44.6	91	42.1	0	1	90	0.00	30.097 
07:35	44.6	44.6	44.6	91	42.1	0	1	90	0.00	30.097 
07:40	44.6	44.6	44.6	91	42.1	0	1	90	0.00	30.097 
07:45	44.6	44.6	44.6	91	42.1	0	2	90	0.00	30.088 
07:50	44.6	44.6	44.6	91	42.1	0	1	90	0.00	30.088 
07:55	44.6	44.6	44.6	91	42.1	0	2	90	0.00	30.088 
08:00	44.6	44.6	44.6	91	42.1	0	2	90	0.00	30.089 
08:05	44.6	44.6	44.6	91	42.1	0	1	90	0.00	30.089 
08:10	44.8	44.8	44.8	91	42.3	0	1	90	0.00	30.089 
08:15	44.8	44.8	44.8	91	42.3	0	1	90	0.00	30.087 
08:20	44.9	44.9	44.9	91	42.4	0	1	90	0.00	30.087 
08:25	44.9	44.9	44.9	91	42.4	0	1	90	0.00	30.087 
08:30	45.1	45.1	45.1	91	42.6	0	0	---	0.00	30.085 
08:35	45.2	45.2	45.2	91	42.7	0	1	90	0.00	30.085 
08:40	45.4	45.4	45.4	91	42.9	0	0	---	0.00	30.085 
08:45	45.5	45.5	45.5	91	43.0	0	1	90	0.00	30.086 
08:50	45.7	45.7	45.7	91	43.2	0	1	90	0.00	30.086 
08:55	45.8	45.8	45.8	91	43.3	0	2	90	0.00	30.086 
09:00	46.1	46.1	46.1	91	43.6	0	1	90	0.00	30.084 
09:05	46.4	46.4	46.4	91	43.9	1	3	90	0.00	30.084 
09:10	46.7	46.7	46.7	91	44.2	0	2	90	0.00	30.084 
09:15	47.0	47.0	47.0	91	44.5	0	2	90	0.00	30.069 
09:20	47.3	47.3	47.3	91	44.8	0	2	90	0.00	30.069 
09:25	47.6	47.6	47.6	91	45.1	0	3	90	0.00	30.069 
09:30	47.7	47.7	47.7	91	45.2	0	2	90	0.00	30.067 
09:35	48.0	48.0	48.0	91	45.5	1	4	90	0.00	30.067 
09:40	48.3	48.3	48.3	91	45.8	0	2	90	0.00	30.067 
09:45	48.6	48.6	48.6	91	46.1	0	4	90	0.00	30.062 
09:50	48.8	48.8	48.8	92	46.6	0	3	90	0.00	30.062 
09:55	49.1	49.1	49.1	92	46.9	0	1	90	0.00	30.062 
10:00	49.2	49.2	49.2	92	47.0	0	2	90	0.00	30.067 
10:05	49.5	49.5	49.5	92	47.3	0	1	90	0.00	30.067 
10:10	49.6	49.6	49.6	92	47.4	0	2	90	0.00	30.067 
10:15	49.8	49.8	49.8	92	47.6	1	3	90	0.00	30.068 
10:20	49.9	49.9	49.9	92	47.7	0	2	90	0.00	30.068 
10:25	50.2	50.2	50.2	92	48.0	1	4	90	0.00	30.068 
10:30	50.4	50.4	50.4	92	48.2	1	4	90	0.00	30.068 
10:35	50.5	50.5	50.5	92	48.3	1	3	90	0.00	30.068 
10:40	50.8	50.8	50.8	92	48.6	0	3	90	0.00	30.068 
10:45	51.1	51.1	51.1	92	48.9	1	3	90	0.00	30.054 
10:50	51.3	51.3	51.3	92	49.1	1	4	90	0.00	30.054 
10:55	51.6	51.6	51.6	92	49.4	1	3	90	0.00	30.054 
11:00	51.9	51.9	51.9	92	49.6	1	3	90	0.00	30.048 
11:05	52.2	52.2	52.2	92	49.9	0	2	90	0.00	30.048 
11:10	52.3	52.3	52.3	92	50.0	1	4	90	0.00	30.048 
11:15	52.6	52.6	52.6	92	50.3	0	2	90	0.00	30.050 
11:20	52.8	52.8	52.8	92	50.5	1	4	90	0.00	30.050 
11:25	53.1	53.1	53.1	92	50.8	1	3	90	0.00	30.050 
11:30	53.3	53.3	53.3	92	51.0	1	3	90	0.00	30.051 
11:35	53.5	53.5	53.5	92	51.2	1	3	90	0.00	30.051 
11:40	53.8	53.8	53.8	92	51.5	1	3	90	0.00	30.051 
11:45	54.1	54.1	54.1	92	51.8	0	2	90	0.00	30.047 
11:50	54.4	54.4	54.4	92	52.1	0	3	90	0.00	30.047 
11:55	54.5	54.5	54.5	92	52.2	1	4	90	0.00	30.047 
12:00	54.7	54.7	54.7	92	52.4	0	2	90	0.00	30.037 
12:05	54.8	54.8	54.8	92	52.5	1	5	90	0.00	30.037 
12:10	55.3	55.3	55.3	92	53.0	0	1	90	0.00	30.037 
12:15	55.6	55.6	55.6	92	53.3	0	2	90	0.00	30.034 
12:20	56.0	56.0	56.0	92	53.7	0	1	90	0.00	30.034 
12:25	56.5	56.5	56.5	91	53.9	0	1	90	0.00	30.034 
12:30	56.9	56.9	56.9	91	54.3	0	2	90	0.00	30.017 
12:35	57.2	57.2	57.2	90	54.3	0	1	90	0.00	30.017 
12:40	57.6	57.6	57.6	90	54.7	0	2	112	0.00	30.017 
12:45	58.0	58.0	58.0	89	54.8	0	3	112	0.00	30.014 
12:50	58.4	58.4	58.4	89	55.2	0	1	112	0.00	30.014 
12:55	58.7	58.7	58.7	88	55.2	0	2	112	0.00	30.014 
13:00	59.2	59.2	59.2	88	55.6	1	3	112	0.00	30.000 
13:05	59.3	59.3	59.3	87	55.4	1	3	112	0.00	30.000 
13:10	59.6	59.6	59.6	87	55.7	0	2	112	0.00	30.000 
13:15	59.9	59.9	59.9	86	55.7	0	1	112	0.00	29.998 
13:20	60.1	60.1	60.1	86	55.9	0	1	112	0.00	29.998 
13:25	60.2	60.2	60.2	85	55.7	0	2	112	0.00	29.998 
13:30	60.5	60.5	60.5	85	56.0	0	2	112	0.00	29.993 
13:35	60.7	60.7	60.7	84	55.8	0	2	112	0.00	29.993 
13:40	61.0	61.0	61.0	84	56.1	0	3	112	0.00	29.993 
13:45	61.2	61.2	61.2	83	56.0	0	1	135	0.00	29.977 
13:50	61.5	61.5	61.5	84	56.6	0	2	135	0.00	29.977 
13:55	61.6	61.6	61.6	83	56.4	0	3	135	0.00	29.977 
14:00	62.0	62.0	62.0	82	56.4	0	3	135	0.00	29.966 
14:05	62.1	62.1	62.1	82	56.5	1	3	135	0.00	29.966 
14:10	62.3	62.3	62.3	82	56.7	1	2	135	0.00	29.966 
14:15	62.3	62.3	62.3	82	56.7	1	3	135	0.00	29.954 
14:20	62.4	62.4	62.4	82	56.8	0	4	135	0.00	29.954 
14:25	62.6	62.6	62.6	81	56.7	1	4	90	0.00	29.954 
14:30	62.7	62.7	62.7	81	56.8	0	2	90	0.00	29.952 
14:35	62.7	62.7	62.7	81	56.8	0	2	90	0.00	29.952 
14:40	62.9	62.9	62.9	82	57.3	0	2	90	0.00	29.952 
14:45	62.9	62.9	62.9	82	57.3	0	3	90	0.00	29.935 
14:50	62.9	62.9	62.9	82	57.3	1	5	112	0.00	29.935 
14:55	63.1	63.1	63.1	82	57.5	0	3	112	0.00	29.935 
15:00	63.1	63.1	63.1	81	57.2	0	2	112	0.00	29.934 
15:05	63.2	63.2	63.2	82	57.6	0	3	112	0.00	29.934 
15:10	63.4	63.4	63.4	81	57.5	0	2	112	0.00	29.934 
15:15	63.5	63.5	63.5	81	57.6	0	2	112	0.00	29.927 
15:20	63.7	63.7	63.7	81	57.8	0	2	112	0.00	29.927 
15:25	63.9	63.9	63.9	81	57.9	0	1	112	0.00	29.927 
15:30	64.0	64.0	64.0	81	58.0	1	3	135	0.00	29.925 
15:35	64.0	64.0	64.0	81	58.0	0	2	135	0.00	29.925 
15:40	64.0	64.0	64.0	81	58.0	0	2	135	0.00	29.925 
15:45	64.0	64.0	64.0	81	58.0	0	2	90	0.00	29.913 
15:50	64.2	64.2	64.2	81	58.2	1	4	90	0.00	29.913 
15:55	64.2	64.2	64.2	81	58.2	0	3	90	0.00	29.913 
16:00	64.2	64.2	64.2	81	58.2	0	2	112	0.00	29.904 
16:05	64.2	64.2	64.2	81	58.2	0	1	112	0.00	29.904 
16:10	64.2	64.2	64.2	81	58.2	0	1	112	0.00	29.904 
16:15	64.3	64.3	64.3	81	58.3	0	2	112	0.00	29.899 
16:20	64.3	64.3	64.3	81	58.3	0	1	112	0.00	29.899 
16:25	64.3	64.3	64.3	81	58.3	0	1	112	0.00	29.899 
16:30	64.3	64.3	64.3	82	58.7	0	1	112	0.00	29.910 
16:35	64.3	64.3	64.3	82	58.7	0	1	112	0.00	29.910 
16:40	64.3	64.3	64.3	82	58.7	0	2	112	0.00	29.910 
16:45	64.3	64.3	64.3	82	58.7	0	1	112	0.00	29.902 
16:50	64.3	64.3	64.3	82	58.7	0	1	112	0.00	29.902 
16:55	64.3	64.3	64.3	82	58.7	0	0	---	0.00	29.902 
17:00	64.3	64.3	64.3	83	59.0	0	2	112	0.00	29.895 
17:05	64.3	64.3	64.3	83	59.0	0	1	112	0.00	29.895 
17:10	64.2	64.2	64.2	83	58.9	0	1	112	0.00	29.895 
17:15	64.2	64.2	64.2	83	58.9	0	2	112	0.00	29.886 
17:20	64.2	64.2	64.2	84	59.3	0	1	112	0.00	29.886 
17:25	64.2	64.2	64.2	84	59.3	0	2	112	0.00	29.886 
17:30	64.2	64.2	64.2	84	59.3	0	3	135	0.00	29.886 
17:35	64.3	64.3	64.3	84	59.4	0	1	135	0.00	29.886 
17:40	64.3	64.3	64.3	84	59.4	0	1	135	0.00	29.886 
17:45	64.3	64.3	64.3	84	59.4	0	1	135	0.00	29.887 
17:50	64.3	64.3	64.3	84	59.4	0	0	---	0.00	29.887 
17:55	64.3	64.3	64.3	84	59.4	0	0	---	0.00	29.887 
18:00	64.3	64.3	64.3	84	59.4	0	0	---	0.00	29.897 
18:05	64.3	64.3	64.3	84	59.4	0	1	135	0.00	29.897 
18:10	64.3	64.3	64.3	85	59.7	0	2	135	0.00	29.897 
18:15	64.5	64.5	64.5	84	59.6	0	1	135	0.00	29.885 
18:20	64.5	64.5	64.5	84	59.6	0	3	112	0.00	29.885 
18:25	64.7	64.7	64.7	84	59.7	0	2	112	0.00	29.885 
18:30	64.7	64.7	64.7	84	59.7	0	2	112	0.00	29.869 
18:35	64.8	64.8	64.8	84	59.8	0	2	112	0.00	29.869 
18:40	64.8	64.8	64.8	84	59.8	0	2	112	0.00	29.869 
18:45	65.0	65.0	65.0	84	60.0	0	2	112	0.00	29.872 
18:50	65.0	65.0	65.0	84	60.0	0	3	90	0.00	29.872 
18:55	65.0	65.0	65.0	84	60.0	0	2	90	0.00	29.872 
19:00	65.0	65.0	65.0	84	60.0	0	1	90	0.00	29.871 
19:05	65.0	65.0	65.0	84	60.0	0	1	90	0.00	29.871 
19:10	65.0	65.0	65.0	83	59.7	0	2	68	0.00	29.871 
19:15	65.2	65.2	65.2	83	59.9	0	1	68	0.00	29.874 
19:20	65.2	65.2	65.2	83	59.9	0	1	68	0.00	29.874 
19:25	65.2	65.2	65.2	83	59.9	0	1	68	0.00	29.874 
19:30	65.2	65.2	65.2	83	59.9	0	1	68	0.00	29.879 
19:35	65.2	65.2	65.2	83	59.9	0	1	68	0.00	29.879 
19:40	65.2	65.2	65.2	83	59.9	0	2	68	0.00	29.879 
19:45	65.2	65.2	65.2	83	59.9	0	2	68	0.00	29.871 
19:50	65.2	65.2	65.2	83	59.9	0	2	68	0.00	29.871 
19:55	65.2	65.2	65.2	83	59.9	0	3	45	0.00	29.871 
20:00	65.0	65.0	65.0	84	60.0	0	2	248	0.00	29.868 
20:05	64.8	64.8	64.8	84	59.8	0	1	248	0.00	29.868 
20:10	64.7	64.7	64.7	85	60.1	0	1	248	0.00	29.868 
20:15	64.5	64.5	64.5	85	59.9	0	2	248	0.00	29.867 
20:20	64.3	64.3	64.3	85	59.7	0	3	248	0.00	29.867 
20:25	64.2	64.2	64.2	86	59.9	0	1	248	0.00	29.867 
20:30	64.2	64.2	64.2	86	59.9	0	2	248	0.00	29.864 
20:35	64.0	64.0	64.0	86	59.7	0	2	248	0.00	29.864 
20:40	64.0	64.0	64.0	86	59.7	0	1	248	0.01	29.864 
20:45	64.0	64.0	64.0	87	60.0	0	2	248	0.00	29.868 
20:50	63.9	63.9	63.9	88	60.3	0	2	248	0.00	29.868 
20:55	63.7	63.7	63.7	88	60.1	0	1	248	0.01	29.868 
21:00	63.5	63.5	63.5	88	59.9	0	0	---	0.00	29.865 
21:05	63.4	63.4	63.4	89	60.1	0	1	248	0.00	29.865 
21:10	63.4	63.4	63.4	89	60.1	0	1	248	0.00	29.865 
21:15	63.2	63.2	63.2	90	60.2	0	1	248	0.00	29.867 
21:20	63.2	63.2	63.2	90	60.2	0	1	248	0.00	29.867 
21:25	63.1	63.1	63.1	91	60.4	0	3	248	0.01	29.867 
21:30	63.1	63.1	63.1	91	60.4	0	2	112	0.00	29.861 
21:35	63.1	63.1	63.1	91	60.4	0	2	112	0.00	29.861 
21:40	62.9	62.9	62.9	91	60.2	0	2	112	0.00	29.861 
21:45	62.9	62.9	62.9	92	60.5	0	1	112	0.00	29.859 
21:50	62.9	62.9	62.9	92	60.5	0	2	112	0.00	29.859 
21:55	62.9	62.9	62.9	92	60.5	1	3	270	0.00	29.859 
22:00	62.9	62.9	62.9	92	60.5	0	2	270	0.00	29.865 
22:05	62.9	62.9	62.9	92	60.5	0	3	315	0.00	29.865 
22:10	62.9	62.9	62.9	92	60.5	0	2	270	0.00	29.865 
22:15	62.9	62.9	62.9	92	60.5	0	2	270	0.00	29.860 
22:20	62.9	62.9	62.9	92	60.5	0	2	270	0.00	29.860 
22:25	63.1	63.1	63.1	93	61.0	1	6	248	0.00	29.860 
22:30	63.1	63.1	63.1	93	61.0	0	3	248	0.00	29.865 
22:35	63.1	63.1	63.1	92	60.7	0	1	248	0.00	29.865 
22:40	63.1	63.1	63.1	93	61.0	1	5	270	0.01	29.865 
22:45	63.2	63.2	63.2	93	61.1	0	2	248	0.00	29.865 
22:50	63.1	63.1	63.1	93	61.0	0	1	248	0.00	29.865 
22:55	63.1	63.1	63.1	93	61.0	0	2	270	0.00	29.865 
23:00	63.1	63.1	63.1	93	61.0	0	1	270	0.00	29.867 
23:05	63.1	63.1	63.1	93	61.0	0	1	270	0.00	29.867 
23:10	63.1	63.1	63.1	93	61.0	0	2	270	0.00	29.867 
23:15	63.1	63.1	63.1	93	61.0	1	4	270	0.00	29.860 
23:20	63.2	63.2	63.2	93	61.1	0	2	270	0.00	29.860 
23:25	63.2	63.2	63.2	93	61.1	0	2	270	0.00	29.860 
23:30	63.2	63.2	63.2	93	61.1	0	2	270	0.00	29.859 
23:35	63.2	63.2	63.2	93	61.1	0	1	270	0.00	29.859 
23:40	63.2	63.2	63.2	92	60.8	0	2	270	0.00	29.859 
23:45	63.2	63.2	63.2	92	60.8	0	2	270	0.00	29.862 
23:50	63.2	63.2	63.2	92	60.8	0	3	270	0.00	29.862 
23:55	63.2	63.2	63.2	92	60.8	0	2	270	0.00	29.862 

CoCoRaHS
IN-AL-39
A2 Web Hosting
Creative Commons License
GoDaddy
search engine by freefind advanced

loaded 2018-11-16 11:48:26 • last modified 2010-11-18 10:43:29
Privacy PolicyDisclaimer
• wx.awcolley.com is powered by PmWiki v.2002016 •
• all content (unless otherwise noted) © 2018 A W Colley